Aeroporto :
LOGIN :

Iscrizione | Disclaimer

   EN    FR    IT 

 










Sommario :    VFR   VFR Marginale   IFR   IFR Intensivo   IFR Molto Intensivo
Visibilità : 
Base nubi : 
>= 8 km
>= 3000ft
5 / 8 km
1000 / 3000 ft
1500m / 5 km
500 / 1000 ft
800 / 1500m
200 / 500 ft
< 800m
< 200 ft
Simboli :   Temporali  Nebbia  Neve Forte  Precipitazioni Forti  Vento > 20 kt
SIGMETs :   Varie  Temporali  Ghiacco  Turbolenza  Onda orograficha  Ceneri Vulcaniche






- Altitudine del aeroporto : 436 ft
- Codice IATA : ANG


LFBU - Angoulême Brie Champniers

ULTIMO METAR :
  • 040500Z AUTO 19004KT 160V240 9999 SCT028 BKN033 BKN040 05/04 Q0987

METARs OBSOLETI :
  • 040430Z AUTO 22006KT 180V250 9999 FEW033/// BKN041/// OVC048/// ///TCU 05/03 Q0987
  • 040400Z AUTO 22011KT 190V250 9999 -RA FEW016/// SCT025/// BKN034/// ///TCU 05/03 Q0987
  • 040330Z AUTO 21005KT 180V250 9999 FEW031/// SCT038/// BKN044/// ///TCU 06/04 Q0987
  • 040300Z AUTO 20004KT 170V260 9999 FEW012 BKN041 BKN047 06/05 Q0987
  • 040230Z AUTO 21007KT 180V240 CAVOK 07/05 Q0987
  • 040200Z AUTO 20009KT 180V240 9999 FEW017/// BKN041/// BKN076/// ///TCU 07/05 Q0987

TAF TAF LFBU
Valido dal 03 a 18 ore il 04 a 18 ore UTC


031700Z 0318/0418 17015KT 9999 BKN040
TEMPO 0318/0324 20015G35KT 3000 RA BKN005 BKN010
PROB30
TEMPO 0320/0322 22025G45KT 1000 SHRA BKN005CB
BECMG 0322/0324 9999 NSW BKN030
TEMPO 0402/0408 VRB15G25KT 4000 SHRA BKN012TCU
TEMPO 0415/0418 4000 SHRA BKN020TCU



MetMap, La meteo Aeronautica in un colpo d'occhio ! - Copyright ORBIFLY Dicembre 2007 - Disclaimer

ORBIFLY MET'MAP TEAM :

Programmazione e sviluppo : Alexandra Zaïnal
Concezione : Baudouin d'Aumeries
Aiuto per la programmazione : Marc-Olivier Méhu
Supporto tecnico e logistico : Manuel Goepfert
Aiuto per la traduzione : Arnaldo La Scala

Contatto : metmap@orbifly.com




FONTI E CREDITI :

   NOAA